Portada
METAR-TAF:

METAR-TAF

Aeroports :

Coral Harbour, Nunavut, Canadà

latitud: 64-12N, longitud: 083-22W, altitud: 64 m

Observació

L'informe es va fer fa 39 minuts, a les 00:00 UTC
Vent 13 kt del Nord amb ràfegues de 20 kt
Temperatura 7°C
Humitat 61%
Pressió 1009 hPa
Visibilitat: 24.1 km
Escasses núvols a una alçada de 3200 ft

METAR: CYZS 170000Z 36013G20KT 15SM FEW032 07/M00 A2980 RMK SC1 SC TR SLP096

Hora: 20:39 (00:39 UTC)

Pronòstic

L'informe es va fer fa 5 hores i 59 minuts, a les 18:40 UTC
Pronòstic vàlid del 16 a les 19 UTC al 17 a les 07 UTC
Vent 13 kt del Nord-Oest
Visibilitat: 10 km
Escasses núvols a una alçada de 2000 ft
Evolucionant progressivament
l' 16 a les 20 UTC al 16 a les 22 UTC
Vent 3 kt amb direcció variable

TAF: CYZS 161840Z 1619/1707 31013KT P6SM FEW020 BECMG 1620/1622 VRB03KT RMK NXT FCST BY 170100Z

Observacions i pronòstics meteorològics de més de 4000 aeroports (METAR i TAF).

Les estacions disponibles són els punts grocs i vermells al mapa.

Posi el ratolí al punt desitjat per veure el nom de l'estació.

Feu clic per veure les observacions i els pronòstics meteorològics.

Per canviar el mapa: feu clic els botons verds amb una creu de color negre per apropar; al botó verd amb un guió per allunyar la imatge; o en les fletxes verdes per a mapes adjacents.


METAR-TAF: